Time;durP1;ratioP1;P1;durP2;ratioP2;P2;SDS_P1;SDS_P2;PMS_P1;PMS_P2;Temp;Humidity;BMP_temperature;BMP_pressure;BME280_temperature;BME280_humidity;BME280_pressure;Samples;Min_cycle;Max_cycle;Signal;HPM_P1;HPM_P2
2021/12/16 00:02:10;;;;;;;184.98;33.80;;;;;;;;;;5030480;28;42750;-85
2021/12/16 00:05:13;;;;;;;216.52;37.40;;;;;;;;;;5032068;28;42847;-85
2021/12/16 00:07:32;;;;;;;152.57;32.10;;;;;;;;;;5030442;28;43860;-85
2021/12/16 00:10:09;;;;;;;222.23;36.35;;;;;;;;;;5031897;28;43988;-85
2021/12/16 00:31:49;;;;;;;147.45;32.50;;;;;;;;;;5030822;28;43833;-85
2021/12/16 00:34:17;;;;;;;148.38;28.73;;;;;;;;;;5031695;28;44704;-85
2021/12/16 00:36:44;;;;;;;177.65;31.17;;;;;;;;;;5030078;28;42891;-85
2021/12/16 00:39:12;;;;;;;138.37;29.93;;;;;;;;;;5031871;28;44919;-85
2021/12/16 00:41:41;;;;;;;115.25;27.63;;;;;;;;;;5030987;28;42151;-85
2021/12/16 00:44:22;;;;;;;161.45;28.95;;;;;;;;;;5030220;28;42867;-85
2021/12/16 00:47:00;;;;;;;129.82;27.67;;;;;;;;;;5030955;28;44903;-85
2021/12/16 00:54:43;;;;;;;133.27;26.80;;;;;;;;;;5031398;28;44731;-85
2021/12/16 00:57:13;;;;;;;128.73;27.58;;;;;;;;;;5030000;28;42873;-84
2021/12/16 00:59:43;;;;;;;90.57;25.23;;;;;;;;;;5031055;28;43895;-85
2021/12/16 01:02:27;;;;;;;122.38;24.35;;;;;;;;;;5030674;28;44729;-85
2021/12/16 01:07:52;;;;;;;137.52;25.58;;;;;;;;;;5030539;28;42746;-85
2021/12/16 01:35:40;;;;;;;85.18;24.88;;;;;;;;;;5030495;28;43171;-85
2021/12/16 01:46:28;;;;;;;120.57;26.70;;;;;;;;;;5029653;28;43803;-85
2021/12/16 01:51:32;;;;;;;153.65;27.70;;;;;;;;;;5030153;28;44729;-85
2021/12/16 01:54:31;;;;;;;99.22;26.52;;;;;;;;;;5029669;28;42883;-85
2021/12/16 01:56:59;;;;;;;145.55;27.00;;;;;;;;;;5029620;28;42988;-85
2021/12/16 01:59:33;;;;;;;211.77;29.13;;;;;;;;;;5030305;28;44800;-85
2021/12/16 02:02:12;;;;;;;117.70;26.02;;;;;;;;;;5029086;28;44836;-85
2021/12/16 02:05:05;;;;;;;;;;;;;;;;;;5031382;28;43961;-85
2021/12/16 02:07:53;;;;;;;179.15;27.38;;;;;;;;;;5028401;28;44321;-85
2021/12/16 02:10:16;;;;;;;134.70;24.83;;;;;;;;;;5030454;28;44246;-85
2021/12/16 02:29:26;;;;;;;245.18;30.08;;;;;;;;;;5027436;28;43676;-85
2021/12/16 02:32:04;;;;;;;251.68;29.60;;;;;;;;;;5029402;28;45150;-85
2021/12/16 02:35:10;;;;;;;97.00;26.48;;;;;;;;;;5029858;28;45002;-85
2021/12/16 02:37:36;;;;;;;99.97;25.17;;;;;;;;;;5028907;28;42668;-85
2021/12/16 02:40:05;;;;;;;130.93;25.77;;;;;;;;;;5029967;28;44307;-86
2021/12/16 02:42:51;;;;;;;255.57;28.63;;;;;;;;;;5028025;28;44815;-84
2021/12/16 02:50:49;;;;;;;372.30;36.83;;;;;;;;;;5030743;28;44009;-86
2021/12/16 02:53:15;;;;;;;99.93;24.98;;;;;;;;;;5032182;28;44969;-85
2021/12/16 02:55:42;;;;;;;111.20;23.85;;;;;;;;;;5032608;28;44974;-84
2021/12/16 02:58:09;;;;;;;188.25;25.40;;;;;;;;;;5031817;28;44751;-84
2021/12/16 03:00:39;;;;;;;212.57;26.30;;;;;;;;;;5033055;28;43796;-85
2021/12/16 03:03:06;;;;;;;181.38;22.80;;;;;;;;;;5031094;28;44679;-84
2021/12/16 03:05:33;;;;;;;98.55;21.42;;;;;;;;;;5032786;28;44995;-85
2021/12/16 03:08:00;;;;;;;279.80;28.35;;;;;;;;;;5032078;28;43977;-85
2021/12/16 03:19:09;;;;;;;88.30;25.38;;;;;;;;;;5031359;28;43971;-85
2021/12/16 03:21:20;;;;;;;137.88;28.17;;;;;;;;;;5031773;28;42983;-85
2021/12/16 03:24:04;;;;;;;79.68;25.88;;;;;;;;;;5032926;28;43825;-85
2021/12/16 03:29:52;;;;;;;113.03;26.85;;;;;;;;;;5032616;28;44976;-85
2021/12/16 03:35:26;;;;;;;265.25;33.53;;;;;;;;;;5032352;28;44282;-85
2021/12/16 03:37:44;;;;;;;331.17;36.47;;;;;;;;;;5032555;28;43653;-85
2021/12/16 03:40:13;;;;;;;332.27;34.13;;;;;;;;;;5031512;28;44666;-85
2021/12/16 03:42:48;;;;;;;393.95;41.45;;;;;;;;;;5032876;28;20053;-85
2021/12/16 03:48:20;;;;;;;243.00;36.85;;;;;;;;;;5030267;28;43873;-85
2021/12/16 03:50:47;;;;;;;326.63;37.13;;;;;;;;;;5032317;28;42959;-85
2021/12/16 03:53:16;;;;;;;236.30;34.80;;;;;;;;;;5030626;28;43401;-85
2021/12/16 03:55:44;;;;;;;252.50;37.85;;;;;;;;;;5031986;28;44853;-85
2021/12/16 03:58:11;;;;;;;324.10;39.05;;;;;;;;;;5031145;28;44924;-85
2021/12/16 04:00:42;;;;;;;303.17;34.20;;;;;;;;;;5031166;28;45138;-85
2021/12/16 04:03:09;;;;;;;260.45;33.28;;;;;;;;;;5031140;28;44770;-85
2021/12/16 04:05:36;;;;;;;229.18;33.28;;;;;;;;;;5031658;28;44902;-86
2021/12/16 04:08:03;;;;;;;140.90;29.77;;;;;;;;;;5030830;28;42766;-85
2021/12/16 04:10:37;;;;;;;212.65;32.45;;;;;;;;;;5032121;28;44976;-85
2021/12/16 04:13:05;;;;;;;133.15;27.52;;;;;;;;;;5030862;28;43755;-85
2021/12/16 04:15:32;;;;;;;212.00;31.15;;;;;;;;;;5031125;28;45461;-85
2021/12/16 04:17:59;;;;;;;188.30;31.42;;;;;;;;;;5032389;28;20053;-85
2021/12/16 04:20:27;;;;;;;239.85;33.42;;;;;;;;;;5031060;28;42612;-85
2021/12/16 04:22:54;;;;;;;243.47;33.27;;;;;;;;;;5030985;28;42853;-86
2021/12/16 04:25:23;;;;;;;156.25;28.75;;;;;;;;;;5031181;28;44825;-85
2021/12/16 04:27:53;;;;;;;174.98;27.90;;;;;;;;;;5030482;28;42745;-86
2021/12/16 04:30:21;;;;;;;132.63;25.63;;;;;;;;;;5032194;28;45004;-86
2021/12/16 04:32:48;;;;;;;147.20;27.42;;;;;;;;;;5030778;28;42776;-86
2021/12/16 04:35:15;;;;;;;124.95;25.77;;;;;;;;;;5030687;28;42847;-86
2021/12/16 04:37:42;;;;;;;115.80;25.80;;;;;;;;;;5030068;28;41946;-86
2021/12/16 04:40:10;;;;;;;203.48;28.42;;;;;;;;;;5030746;28;43725;-85
2021/12/16 04:42:37;;;;;;;179.63;26.52;;;;;;;;;;5030067;28;43827;-85
2021/12/16 04:45:06;;;;;;;226.18;30.08;;;;;;;;;;5029412;28;45114;-86
2021/12/16 04:47:34;;;;;;;77.78;23.83;;;;;;;;;;5030395;28;42719;-86
2021/12/16 04:50:01;;;;;;;109.53;23.95;;;;;;;;;;5039259;28;44838;-86
2021/12/16 04:52:27;;;;;;;107.80;24.55;;;;;;;;;;5055914;28;43905;-87
2021/12/16 04:54:54;;;;;;;84.72;23.48;;;;;;;;;;5041256;28;43855;-86
2021/12/16 04:57:21;;;;;;;89.32;22.52;;;;;;;;;;5030420;28;44305;-86
2021/12/16 04:59:48;;;;;;;116.63;23.75;;;;;;;;;;5031493;28;44741;-87
2021/12/16 05:02:16;;;;;;;75.88;22.02;;;;;;;;;;5028725;28;43368;-85
2021/12/16 05:04:43;;;;;;;116.25;23.50;;;;;;;;;;5028038;28;43962;-86
2021/12/16 05:07:10;;;;;;;71.65;23.13;;;;;;;;;;5028557;28;42692;-86
2021/12/16 05:10:02;;;;;;;109.63;24.55;;;;;;;;;;5028516;28;43873;-85
2021/12/16 05:12:25;;;;;;;157.95;24.80;;;;;;;;;;5029475;28;45267;-86
2021/12/16 05:14:52;;;;;;;224.55;27.67;;;;;;;;;;5031206;28;44823;-86
2021/12/16 05:17:27;;;;;;;203.18;25.02;;;;;;;;;;5029856;28;43300;-86
2021/12/16 05:19:55;;;;;;;114.60;25.20;;;;;;;;;;5030940;28;43305;-86
2021/12/16 05:25:16;;;;;;;85.28;19.25;;;;;;;;;;5029603;28;43144;-86
2021/12/16 05:27:42;;;;;;;96.93;22.10;;;;;;;;;;5030276;28;42998;-86
2021/12/16 05:30:09;;;;;;;236.55;27.38;;;;;;;;;;5030615;28;44918;-86
2021/12/16 05:32:36;;;;;;;99.80;19.70;;;;;;;;;;5029910;28;43938;-86
2021/12/16 05:35:03;;;;;;;184.40;23.88;;;;;;;;;;5031096;28;42602;-86
2021/12/16 05:37:30;;;;;;;163.43;24.83;;;;;;;;;;5030400;28;42887;-86
2021/12/16 05:39:56;;;;;;;233.40;27.35;;;;;;;;;;5029904;28;42770;-86
2021/12/16 05:42:23;;;;;;;264.45;23.95;;;;;;;;;;5029421;28;42842;-86
2021/12/16 05:44:50;;;;;;;338.67;29.20;;;;;;;;;;5029753;28;43949;-86
2021/12/16 05:47:16;;;;;;;131.73;24.33;;;;;;;;;;5030039;28;44707;-86
2021/12/16 05:49:43;;;;;;;242.15;25.05;;;;;;;;;;5030789;28;43424;-86
2021/12/16 05:52:10;;;;;;;139.07;21.17;;;;;;;;;;5028898;28;43941;-86
2021/12/16 05:54:36;;;;;;;119.95;22.20;;;;;;;;;;5030651;28;45133;-86
2021/12/16 05:57:03;;;;;;;409.67;31.65;;;;;;;;;;5030062;28;45243;-86
2021/12/16 05:59:30;;;;;;;71.65;19.45;;;;;;;;;;5029811;28;44732;-86
2021/12/16 06:01:56;;;;;;;79.30;19.88;;;;;;;;;;5029657;28;44977;-86
2021/12/16 06:04:23;;;;;;;131.20;23.52;;;;;;;;;;5030035;28;44933;-86
2021/12/16 06:06:50;;;;;;;113.38;19.13;;;;;;;;;;5028213;28;42669;-87
2021/12/16 06:09:17;;;;;;;92.20;18.55;;;;;;;;;;5030017;28;43829;-86
2021/12/16 06:11:44;;;;;;;61.15;18.83;;;;;;;;;;5029231;28;44924;-86
2021/12/16 06:14:29;;;;;;;93.32;20.45;;;;;;;;;;5029307;28;44638;-85
2021/12/16 06:22:55;;;;;;;86.95;19.77;;;;;;;;;;5029019;28;43868;-86
2021/12/16 06:28:08;;;;;;;51.40;18.45;;;;;;;;;;5031422;28;45032;-86
2021/12/16 06:30:40;;;;;;;228.73;23.50;;;;;;;;;;5033944;28;44987;-86
2021/12/16 06:33:08;;;;;;;351.83;31.88;;;;;;;;;;5032893;28;44458;-86
2021/12/16 06:35:35;;;;;;;256.23;23.85;;;;;;;;;;5033300;28;44243;-86
2021/12/16 06:38:02;;;;;;;164.63;24.20;;;;;;;;;;5032315;28;42871;-86
2021/12/16 06:40:29;;;;;;;80.32;19.80;;;;;;;;;;5033422;28;42897;-86
2021/12/16 06:42:58;;;;;;;92.28;18.33;;;;;;;;;;5032536;28;42077;-86
2021/12/16 06:45:34;;;;;;;89.32;19.63;;;;;;;;;;5033066;28;44339;-86
2021/12/16 06:48:06;;;;;;;77.75;18.85;;;;;;;;;;5031898;28;42682;-86
2021/12/16 06:53:30;;;;;;;108.03;22.90;;;;;;;;;;5032216;28;44964;-86
2021/12/16 06:56:06;;;;;;;127.82;21.40;;;;;;;;;;5031956;28;43736;-86
2021/12/16 07:01:15;;;;;;;102.22;18.40;;;;;;;;;;5032922;28;44886;-86
2021/12/16 07:03:49;;;;;;;109.63;18.90;;;;;;;;;;5032062;28;44808;-86
2021/12/16 07:06:21;;;;;;;69.50;17.35;;;;;;;;;;5032774;28;44895;-86
2021/12/16 07:08:52;;;;;;;77.68;19.10;;;;;;;;;;5032842;28;43229;-86
2021/12/16 07:11:20;;;;;;;62.33;18.85;;;;;;;;;;5031765;28;43833;-86
2021/12/16 07:13:57;;;;;;;153.07;20.42;;;;;;;;;;5032176;28;43968;-86
2021/12/16 07:16:24;;;;;;;54.60;16.75;;;;;;;;;;5031565;28;43678;-86
2021/12/16 07:18:52;;;;;;;60.72;18.17;;;;;;;;;;5032930;28;44941;-86
2021/12/16 07:21:19;;;;;;;;;;;;;;;;;;5031665;28;45366;-86
2021/12/16 07:23:46;;;;;;;110.28;17.05;;;;;;;;;;5031868;28;44363;-86
2021/12/16 07:26:13;;;;;;;92.90;18.73;;;;;;;;;;5031920;28;44881;-86
2021/12/16 07:28:39;;;;;;;72.95;15.40;;;;;;;;;;5042959;28;44967;-86
2021/12/16 07:31:06;;;;;;;58.17;15.57;;;;;;;;;;5051299;28;41402;-86
2021/12/16 07:33:33;;;;;;;174.82;18.08;;;;;;;;;;5049279;28;43838;-86
2021/12/16 07:36:02;;;;;;;140.07;18.25;;;;;;;;;;5049031;28;44871;-89
2021/12/16 07:38:29;;;;;;;78.72;17.13;;;;;;;;;;5049243;28;43109;-87
2021/12/16 07:40:57;;;;;;;67.75;16.23;;;;;;;;;;5051922;28;45122;-86
2021/12/16 07:43:30;;;;;;;;;;;;;;;;;;5040749;28;20053;-93
2021/12/16 07:45:57;;;;;;;74.15;14.85;;;;;;;;;;5032605;28;42973;-90
2021/12/16 07:48:25;;;;;;;93.85;18.23;;;;;;;;;;5032869;28;44822;-88
2021/12/16 07:50:54;;;;;;;73.72;17.85;;;;;;;;;;5032838;28;42174;-87
2021/12/16 07:53:21;;;;;;;185.38;20.20;;;;;;;;;;5030682;28;45220;-87
2021/12/16 07:55:47;;;;;;;128.93;18.25;;;;;;;;;;5032393;28;44747;-88
2021/12/16 07:58:14;;;;;;;96.07;17.77;;;;;;;;;;5031166;28;45454;-88
2021/12/16 08:00:41;;;;;;;179.20;18.33;;;;;;;;;;5032141;28;44108;-90
2021/12/16 08:03:11;;;;;;;114.60;18.75;;;;;;;;;;5032007;28;43669;-87
2021/12/16 08:05:40;;;;;;;180.43;19.80;;;;;;;;;;5029928;28;43810;-88
2021/12/16 08:08:08;;;;;;;90.35;18.23;;;;;;;;;;5029697;28;44963;-87
2021/12/16 08:10:36;;;;;;;71.10;16.65;;;;;;;;;;5031041;28;44676;-87
2021/12/16 08:13:03;;;;;;;91.97;18.25;;;;;;;;;;5029082;28;43947;-87
2021/12/16 08:15:30;;;;;;;151.48;19.45;;;;;;;;;;5030858;28;42734;-87
2021/12/16 08:17:58;;;;;;;223.52;22.15;;;;;;;;;;5029305;28;42897;-87
2021/12/16 08:20:25;;;;;;;88.03;20.40;;;;;;;;;;5029626;28;43727;-87
2021/12/16 08:22:52;;;;;;;138.88;18.95;;;;;;;;;;5030461;28;20048;-87
2021/12/16 08:25:20;;;;;;;56.08;17.08;;;;;;;;;;5030596;28;42674;-87
2021/12/16 08:27:49;;;;;;;96.00;15.07;;;;;;;;;;5030483;28;44894;-86
2021/12/16 08:30:16;;;;;;;81.20;14.20;;;;;;;;;;5043374;28;42682;-87
2021/12/16 08:32:44;;;;;;;61.38;15.25;;;;;;;;;;5056867;28;34421;-89
2021/12/16 08:35:11;;;;;;;56.53;14.77;;;;;;;;;;5038455;28;44070;-87
2021/12/16 08:37:39;;;;;;;39.38;14.63;;;;;;;;;;5031346;28;42835;-87
2021/12/16 08:40:06;;;;;;;;;;;;;;;;;;5028964;28;42745;-87
2021/12/16 08:42:32;;;;;;;41.25;14.15;;;;;;;;;;5029090;28;43408;-87
2021/12/16 08:44:59;;;;;;;55.10;13.55;;;;;;;;;;5030179;28;43789;-87
2021/12/16 08:47:26;;;;;;;67.45;15.00;;;;;;;;;;5028336;28;45034;-88
2021/12/16 08:49:53;;;;;;;45.95;14.40;;;;;;;;;;5029815;28;43563;-87
2021/12/16 08:52:20;;;;;;;43.85;15.07;;;;;;;;;;5029946;28;45231;-87
2021/12/16 08:54:48;;;;;;;46.90;15.73;;;;;;;;;;5029470;28;43839;-89
2021/12/16 08:57:15;;;;;;;50.30;15.03;;;;;;;;;;5029813;28;44832;-87
2021/12/16 08:59:43;;;;;;;70.00;14.00;;;;;;;;;;5030198;28;43181;-86
2021/12/16 09:02:10;;;;;;;53.47;12.82;;;;;;;;;;5029097;28;42463;-87
2021/12/16 09:04:38;;;;;;;58.10;14.45;;;;;;;;;;5030605;28;45296;-87
2021/12/16 09:07:06;;;;;;;23.08;14.68;;;;;;;;;;5029418;28;45248;-86
2021/12/16 09:09:35;;;;;;;40.50;13.65;;;;;;;;;;5029257;28;42952;-89
2021/12/16 09:12:12;;;;;;;57.20;15.55;;;;;;;;;;5029773;28;42796;-87
2021/12/16 09:14:40;;;;;;;21.53;12.77;;;;;;;;;;5030599;28;42945;-87
2021/12/16 09:17:11;;;;;;;49.85;15.45;;;;;;;;;;5029017;28;44496;-88
2021/12/16 09:19:38;;;;;;;30.45;14.50;;;;;;;;;;5030458;28;45266;-88
2021/12/16 09:22:06;;;;;;;48.25;15.80;;;;;;;;;;5029357;28;44217;-88
2021/12/16 09:24:33;;;;;;;25.03;14.47;;;;;;;;;;5029689;28;43845;-88
2021/12/16 09:27:03;;;;;;;47.38;16.20;;;;;;;;;;5027340;28;44837;-93
2021/12/16 09:29:32;;;;;;;26.42;15.20;;;;;;;;;;5031109;28;20057;-87
2021/12/16 09:32:02;;;;;;;37.25;16.15;;;;;;;;;;5024848;28;45403;-88
2021/12/16 09:34:37;;;;;;;39.90;16.25;;;;;;;;;;5024482;28;45450;-86
2021/12/16 09:37:04;;;;;;;38.80;17.60;;;;;;;;;;5025002;28;43603;-88
2021/12/16 09:39:32;;;;;;;38.37;16.97;;;;;;;;;;5028641;28;20050;-89
2021/12/16 09:41:59;;;;;;;27.67;16.67;;;;;;;;;;5028116;28;43268;-86
2021/12/16 09:44:27;;;;;;;26.88;17.02;;;;;;;;;;5026914;28;43937;-88
2021/12/16 09:46:55;;;;;;;22.67;14.73;;;;;;;;;;5028057;28;44974;-89
2021/12/16 09:49:22;;;;;;;32.65;16.70;;;;;;;;;;5028220;28;43665;-89
2021/12/16 09:51:50;;;;;;;26.30;16.27;;;;;;;;;;5028484;28;44840;-89
2021/12/16 09:54:19;;;;;;;21.08;15.52;;;;;;;;;;5030331;28;44372;-88
2021/12/16 09:56:47;;;;;;;20.30;15.05;;;;;;;;;;5029463;28;45050;-89
2021/12/16 09:59:15;;;;;;;33.10;17.70;;;;;;;;;;5029233;28;43528;-88
2021/12/16 10:01:42;;;;;;;23.60;16.33;;;;;;;;;;5029263;28;36430;-88
2021/12/16 10:04:13;;;;;;;17.08;12.18;;;;;;;;;;5024697;28;43811;-89
2021/12/16 10:06:40;;;;;;;25.17;14.90;;;;;;;;;;5028490;28;45438;-89
2021/12/16 10:09:08;;;;;;;;;;;;;;;;;;5031492;28;20140;-88
2021/12/16 10:11:36;;;;;;;17.63;12.45;;;;;;;;;;5028181;28;44959;-88
2021/12/16 10:14:17;;;;;;;18.27;13.17;;;;;;;;;;5026707;28;45654;-87
2021/12/16 10:19:32;;;;;;;17.48;11.52;;;;;;;;;;5024691;28;44909;-88
2021/12/16 10:22:18;;;;;;;16.52;12.50;;;;;;;;;;5027071;28;43680;-88
2021/12/16 10:24:46;;;;;;;15.98;11.68;;;;;;;;;;5046037;28;43849;-88
2021/12/16 10:27:14;;;;;;;29.83;14.77;;;;;;;;;;5046824;28;41929;-88
2021/12/16 10:29:41;;;;;;;17.77;12.38;;;;;;;;;;5048258;28;42701;-88
2021/12/16 10:32:28;;;;;;;23.15;13.15;;;;;;;;;;5047186;28;42879;-88
2021/12/16 10:34:58;;;;;;;19.70;12.95;;;;;;;;;;5043052;28;42365;-88
2021/12/16 10:37:32;;;;;;;27.40;14.23;;;;;;;;;;5046988;28;44650;-88
2021/12/16 10:40:17;;;;;;;27.88;14.00;;;;;;;;;;5046851;28;42986;-87
2021/12/16 10:42:45;;;;;;;19.98;13.45;;;;;;;;;;5039209;28;43875;-88
2021/12/16 10:45:25;;;;;;;25.25;13.32;;;;;;;;;;5028276;28;20061;-88
2021/12/16 10:48:10;;;;;;;25.60;12.88;;;;;;;;;;5024724;28;43012;-88
2021/12/16 10:50:46;;;;;;;25.92;13.85;;;;;;;;;;5027195;28;42713;-89
2021/12/16 10:53:13;;;;;;;25.05;13.13;;;;;;;;;;5026619;28;43852;-88
2021/12/16 10:55:59;;;;;;;23.27;13.23;;;;;;;;;;5033278;28;43980;-88
2021/12/16 10:58:52;;;;;;;24.17;14.60;;;;;;;;;;5034170;28;42707;-89
2021/12/16 11:01:45;;;;;;;23.75;14.05;;;;;;;;;;5005095;28;44170;-87
2021/12/16 11:04:14;;;;;;;23.48;13.38;;;;;;;;;;5007812;28;44835;-87
2021/12/16 11:06:44;;;;;;;31.02;14.63;;;;;;;;;;5026695;28;43711;-88
2021/12/16 11:09:28;;;;;;;27.27;15.27;;;;;;;;;;5026465;28;42253;-88
2021/12/16 11:12:10;;;;;;;26.70;14.25;;;;;;;;;;5028448;28;44711;-88
2021/12/16 11:14:38;;;;;;;29.33;14.70;;;;;;;;;;5030135;28;45437;-89
2021/12/16 11:17:08;;;;;;;27.42;15.88;;;;;;;;;;5030609;28;42833;-88
2021/12/16 11:19:43;;;;;;;25.63;14.95;;;;;;;;;;5031622;28;42705;-88
2021/12/16 11:22:10;;;;;;;24.02;14.07;;;;;;;;;;5030919;28;20214;-88
2021/12/16 11:24:37;;;;;;;29.52;14.30;;;;;;;;;;5030132;28;20081;-87
2021/12/16 11:27:22;;;;;;;29.35;15.38;;;;;;;;;;4928129;28;44873;-88
2021/12/16 11:29:50;;;;;;;30.75;14.13;;;;;;;;;;5031629;28;41261;-88
2021/12/16 11:32:38;;;;;;;24.58;14.45;;;;;;;;;;5031492;28;44930;-88
2021/12/16 11:35:04;;;;;;;;;;;;;;;;;;5032815;28;43009;-88
2021/12/16 11:37:31;;;;;;;24.58;13.05;;;;;;;;;;5030642;28;44093;-87
2021/12/16 11:39:58;;;;;;;19.38;12.68;;;;;;;;;;5031851;28;44735;-88
2021/12/16 11:42:27;;;;;;;26.83;12.57;;;;;;;;;;5030963;28;45308;-88
2021/12/16 11:44:57;;;;;;;26.30;14.93;;;;;;;;;;5031102;28;41688;-88
2021/12/16 11:47:25;;;;;;;23.45;13.88;;;;;;;;;;5030842;28;44754;-89
2021/12/16 11:49:54;;;;;;;22.67;13.35;;;;;;;;;;5031646;28;44925;-88
2021/12/16 11:52:23;;;;;;;24.67;13.10;;;;;;;;;;5029995;28;43926;-88
2021/12/16 11:54:50;;;;;;;22.65;13.13;;;;;;;;;;5032073;28;44676;-88
2021/12/16 11:57:19;;;;;;;27.98;14.15;;;;;;;;;;5030947;28;44969;-87
2021/12/16 11:59:48;;;;;;;22.17;12.95;;;;;;;;;;5030776;28;43672;-87
2021/12/16 12:02:20;;;;;;;24.38;12.85;;;;;;;;;;5031180;28;45091;-87
2021/12/16 12:04:47;;;;;;;22.48;11.90;;;;;;;;;;5031982;28;43961;-89
2021/12/16 12:07:15;;;;;;;29.95;13.60;;;;;;;;;;5055180;28;43545;-88
2021/12/16 12:09:43;;;;;;;28.08;13.65;;;;;;;;;;5050498;28;43860;-87
2021/12/16 12:12:10;;;;;;;26.42;13.18;;;;;;;;;;5030774;28;43583;-87
2021/12/16 12:14:37;;;;;;;32.97;13.30;;;;;;;;;;5032299;28;44818;-87
2021/12/16 12:17:06;;;;;;;25.98;12.25;;;;;;;;;;5030880;28;42588;-87
2021/12/16 12:19:39;;;;;;;22.25;11.88;;;;;;;;;;5031088;28;43632;-88
2021/12/16 12:22:06;;;;;;;28.48;13.60;;;;;;;;;;5030676;28;44986;-89
2021/12/16 12:24:34;;;;;;;26.02;12.43;;;;;;;;;;5030923;28;45163;-88
2021/12/16 12:27:09;;;;;;;24.55;12.70;;;;;;;;;;5029998;28;43678;-87
2021/12/16 12:29:37;;;;;;;27.60;14.00;;;;;;;;;;5030749;28;44156;-87
2021/12/16 12:32:06;;;;;;;35.20;13.80;;;;;;;;;;5030797;28;43895;-88
2021/12/16 12:34:34;;;;;;;28.35;14.10;;;;;;;;;;5030545;28;43888;-87
2021/12/16 12:37:02;;;;;;;25.80;14.63;;;;;;;;;;5030167;28;42839;-87
2021/12/16 12:39:29;;;;;;;;;;;;;;;;;;5032194;28;43801;-87
2021/12/16 12:41:57;;;;;;;21.38;13.32;;;;;;;;;;5029565;28;45107;-87
2021/12/16 12:44:24;;;;;;;26.30;13.93;;;;;;;;;;5030262;28;43002;-87
2021/12/16 12:46:52;;;;;;;32.00;15.07;;;;;;;;;;5029280;28;42933;-87
2021/12/16 12:49:25;;;;;;;36.67;15.53;;;;;;;;;;5030905;28;43687;-87
2021/12/16 12:52:00;;;;;;;27.30;14.38;;;;;;;;;;5030008;28;43847;-87
2021/12/16 12:54:28;;;;;;;26.50;14.25;;;;;;;;;;5029938;28;43206;-87
2021/12/16 12:56:57;;;;;;;30.70;15.50;;;;;;;;;;5029919;28;38127;-87
2021/12/16 12:59:23;;;;;;;;;;;;;;;;;;5032385;28;43474;-87
2021/12/16 13:01:52;;;;;;;27.25;16.63;;;;;;;;;;5029296;28;43862;-86
2021/12/16 13:04:32;;;;;;;29.15;16.35;;;;;;;;;;5030340;28;44016;-87
2021/12/16 13:07:01;;;;;;;26.40;16.85;;;;;;;;;;5029575;28;44155;-87
2021/12/16 13:09:31;;;;;;;24.65;16.60;;;;;;;;;;5029695;28;42941;-87
2021/12/16 13:11:58;;;;;;;28.77;17.02;;;;;;;;;;5029240;28;42697;-86
2021/12/16 13:14:49;;;;;;;27.85;16.05;;;;;;;;;;5030593;28;44723;-86
2021/12/16 13:23:31;;;;;;;26.13;17.27;;;;;;;;;;5016455;28;42866;-87
2021/12/16 13:31:22;;;;;;;32.63;19.08;;;;;;;;;;5029563;28;44818;-87
2021/12/16 13:33:55;;;;;;;38.83;20.88;;;;;;;;;;5028946;28;44944;-87
2021/12/16 13:36:42;;;;;;;84.60;21.85;;;;;;;;;;5028917;28;44786;-86
2021/12/16 13:39:14;;;;;;;102.03;23.13;;;;;;;;;;5029788;28;45259;-86
2021/12/16 13:41:58;;;;;;;72.82;23.60;;;;;;;;;;5028714;28;43508;-87
2021/12/16 13:44:45;;;;;;;215.73;25.48;;;;;;;;;;5009142;28;43742;-87
2021/12/16 14:01:55;;;;;;;275.07;28.73;;;;;;;;;;5029058;28;42299;-86
2021/12/16 14:10:06;;;;;;;90.53;25.85;;;;;;;;;;5029264;28;44003;-86
2021/12/16 14:15:26;;;;;;;177.88;28.25;;;;;;;;;;5029436;28;43108;-86
2021/12/16 14:18:02;;;;;;;119.22;28.98;;;;;;;;;;5028675;28;44910;-87
2021/12/16 14:23:23;;;;;;;180.52;31.63;;;;;;;;;;5028848;28;43906;-87
2021/12/16 14:34:48;;;;;;;161.13;32.72;;;;;;;;;;5028454;28;43593;-86
2021/12/16 14:49:51;;;;;;;104.85;27.83;;;;;;;;;;5030327;28;43765;-87
2021/12/16 14:52:22;;;;;;;183.82;34.03;;;;;;;;;;5025755;28;43422;-87
2021/12/16 14:54:51;;;;;;;378.75;36.25;;;;;;;;;;5029700;28;44957;-87
2021/12/16 14:57:22;;;;;;;593.47;39.13;;;;;;;;;;5043588;28;44750;-87
2021/12/16 14:59:51;;;;;;;356.48;36.30;;;;;;;;;;5049995;28;20042;-86
2021/12/16 15:02:19;;;;;;;360.40;36.88;;;;;;;;;;5047721;28;44880;-86
2021/12/16 15:04:46;;;;;;;354.55;38.38;;;;;;;;;;5047277;28;43941;-89
2021/12/16 15:07:13;;;;;;;502.60;41.83;;;;;;;;;;5030728;28;44928;-87
2021/12/16 15:09:41;;;;;;;148.68;31.20;;;;;;;;;;5029964;28;43749;-87
2021/12/16 15:12:16;;;;;;;167.10;33.25;;;;;;;;;;5040270;28;43633;-86
2021/12/16 15:15:01;;;;;;;172.15;33.70;;;;;;;;;;5029551;28;43877;-86
2021/12/16 15:40:17;;;;;;;229.38;35.10;;;;;;;;;;5054951;28;43724;-88
2021/12/16 15:42:53;;;;;;;211.57;34.47;;;;;;;;;;5043483;28;43874;-86
2021/12/16 15:45:23;;;;;;;256.83;35.00;;;;;;;;;;5031740;28;44954;-87
2021/12/16 15:47:52;;;;;;;345.83;40.42;;;;;;;;;;5030652;28;44906;-87
2021/12/16 15:50:42;;;;;;;353.58;37.25;;;;;;;;;;5029635;28;45475;-87
2021/12/16 15:53:11;;;;;;;266.63;34.22;;;;;;;;;;5030041;28;44800;-87
2021/12/16 15:55:41;;;;;;;422.70;37.92;;;;;;;;;;5030351;28;45303;-86
2021/12/16 15:58:10;;;;;;;397.38;41.90;;;;;;;;;;5028969;28;45325;-87
2021/12/16 16:00:41;;;;;;;306.67;36.45;;;;;;;;;;5037958;28;44895;-86
2021/12/16 16:03:09;;;;;;;309.10;41.88;;;;;;;;;;5047922;28;43817;-85
2021/12/16 16:05:38;;;;;;;393.50;43.25;;;;;;;;;;5010912;28;43955;-86
2021/12/16 16:08:08;;;;;;;355.42;46.28;;;;;;;;;;5026676;28;42318;-86
2021/12/16 16:10:35;;;;;;;675.45;61.10;;;;;;;;;;5030081;28;43461;-86
2021/12/16 16:13:06;;;;;;;352.70;43.10;;;;;;;;;;5029236;28;45219;-85
2021/12/16 16:15:33;;;;;;;363.98;48.33;;;;;;;;;;5030689;28;43850;-86
2021/12/16 16:18:13;;;;;;;132.80;36.27;;;;;;;;;;5029661;28;44616;-86
2021/12/16 16:20:42;;;;;;;141.82;36.92;;;;;;;;;;5031197;28;20050;-86
2021/12/16 16:23:10;;;;;;;309.98;45.83;;;;;;;;;;5030624;28;44880;-86
2021/12/16 16:25:38;;;;;;;302.25;44.13;;;;;;;;;;5029661;28;43911;-86
2021/12/16 16:28:05;;;;;;;332.58;43.70;;;;;;;;;;5033503;28;43793;-86
2021/12/16 16:30:32;;;;;;;535.33;53.43;;;;;;;;;;5029622;28;44887;-86
2021/12/16 16:33:10;;;;;;;381.48;45.22;;;;;;;;;;5029120;28;45238;-85
2021/12/16 16:35:44;;;;;;;205.38;41.58;;;;;;;;;;5030505;28;42794;-85
2021/12/16 16:38:12;;;;;;;551.28;53.38;;;;;;;;;;5029492;28;44922;-84
2021/12/16 16:40:41;;;;;;;430.67;45.67;;;;;;;;;;5029431;28;44802;-85
2021/12/16 16:43:15;;;;;;;230.20;40.85;;;;;;;;;;5027724;28;43104;-85
2021/12/16 16:45:43;;;;;;;322.75;43.58;;;;;;;;;;5029736;28;43918;-85
2021/12/16 16:48:29;;;;;;;493.55;46.45;;;;;;;;;;5028262;28;43369;-85
2021/12/16 16:51:03;;;;;;;427.23;45.38;;;;;;;;;;5028822;28;44901;-84
2021/12/16 16:53:29;;;;;;;352.38;40.63;;;;;;;;;;5008750;28;43885;-85
2021/12/16 16:56:02;;;;;;;531.42;42.72;;;;;;;;;;5026206;28;42846;-85
2021/12/16 16:58:32;;;;;;;448.85;41.53;;;;;;;;;;5028038;28;43883;-85
2021/12/16 17:00:59;;;;;;;391.23;36.13;;;;;;;;;;5027904;28;43718;-84
2021/12/16 17:03:25;;;;;;;371.35;37.10;;;;;;;;;;5028061;28;44975;-84
2021/12/16 17:05:57;;;;;;;338.90;36.50;;;;;;;;;;5027790;28;42914;-85
2021/12/16 17:08:25;;;;;;;374.88;35.72;;;;;;;;;;5026469;28;44750;-85
2021/12/16 17:10:54;;;;;;;218.45;28.15;;;;;;;;;;5028510;28;43844;-85
2021/12/16 17:13:36;;;;;;;326.92;34.42;;;;;;;;;;5028289;28;42979;-85
2021/12/16 17:18:32;;;;;;;275.45;37.33;;;;;;;;;;5029235;28;44048;-85
2021/12/16 17:21:00;;;;;;;101.60;31.73;;;;;;;;;;5029515;28;43756;-84
2021/12/16 17:23:29;;;;;;;187.80;29.65;;;;;;;;;;5027717;28;44853;-86
2021/12/16 17:25:55;;;;;;;130.10;28.55;;;;;;;;;;5028653;28;43924;-84
2021/12/16 17:28:24;;;;;;;97.13;28.25;;;;;;;;;;5027123;28;42673;-84
2021/12/16 17:30:51;;;;;;;124.85;28.48;;;;;;;;;;5028209;28;43815;-85
2021/12/16 17:33:23;;;;;;;132.63;32.45;;;;;;;;;;5027748;28;43525;-84
2021/12/16 17:35:50;;;;;;;118.75;30.40;;;;;;;;;;5027742;28;44617;-85
2021/12/16 17:38:22;;;;;;;125.53;31.65;;;;;;;;;;5027936;28;42927;-85
2021/12/16 17:41:09;;;;;;;123.55;32.05;;;;;;;;;;5029249;28;31212;-90
2021/12/16 17:43:40;;;;;;;140.10;33.17;;;;;;;;;;5025444;28;40061;-85
2021/12/16 17:46:09;;;;;;;125.57;35.20;;;;;;;;;;5025505;28;42936;-85
2021/12/16 17:48:39;;;;;;;100.47;33.63;;;;;;;;;;5027826;28;42776;-85
2021/12/16 17:51:10;;;;;;;134.30;33.20;;;;;;;;;;5027702;28;43933;-84
2021/12/16 17:53:42;;;;;;;100.22;31.75;;;;;;;;;;5027453;28;45247;-85
2021/12/16 17:56:09;;;;;;;74.57;31.13;;;;;;;;;;5026116;28;44787;-84
2021/12/16 17:58:37;;;;;;;72.20;33.20;;;;;;;;;;5029984;28;44808;-85
2021/12/16 18:01:13;;;;;;;52.63;28.73;;;;;;;;;;5029490;28;44145;-85